MST,Max TemperatureF,Mean TemperatureF,Min TemperatureF,Max Dew PointF,MeanDew PointF,Min DewpointF,Max Humidity, Mean Humidity, Min Humidity, Max Sea Level PressureIn, Mean Sea Level PressureIn, Min Sea Level PressureIn, Max VisibilityMiles, Mean VisibilityMiles, Min VisibilityMiles, Max Wind SpeedMPH, Mean Wind SpeedMPH, Max Gust SpeedMPH,PrecipitationIn, CloudCover, Events, WindDirDegrees
2013-2-1,69,54,39,33,27,21,61,40,16,30.19,30.13,30.07,10,10,10,13,6,,0.00,0,,146
2013-2-2,74,57,40,37,28,18,59,38,12,30.23,30.14,30.05,10,10,10,10,6,,0.00,1,,150
2013-2-3,68,60,52,38,32,23,56,37,25,30.07,29.98,29.91,10,10,10,13,6,,0.00,2,,152
2013-2-4,67,56,46,39,37,35,70,50,30,30.00,29.95,29.89,10,10,10,10,5,,0.00,1,,126
2013-2-5,72,58,43,41,39,36,76,53,27,29.99,29.93,29.87,10,10,10,16,6,,0.00,0,,161
2013-2-6,69,58,48,40,37,33,69,48,27,30.00,29.92,29.87,10,10,10,14,7,,0.00,0,,207
2013-2-7,68,56,43,37,32,25,71,45,22,30.09,29.99,29.92,10,10,10,9,5,,0.00,0,,142
2013-2-8,66,56,46,33,24,12,52,32,12,29.91,29.82,29.74,10,10,10,17,9,25,0.00,0,,189
2013-2-9,50,42,35,37,31,21,94,69,33,30.03,29.89,29.75,10,10,9,20,9,24,0.13,5,Rain,257
2013-2-10,54,43,32,28,24,18,78,53,26,30.04,29.98,29.91,10,10,10,8,6,,0.00,0,,179
2013-2-11,50,41,32,36,33,22,100,86,38,30.15,30.06,29.94,10,10,4,16,8,23,0.26,6,Rain,218
2013-2-12,49,40,31,36,31,26,100,76,40,30.28,30.19,30.15,10,10,10,13,3,,0.00,2,,174
2013-2-13,57,44,32,32,25,17,85,53,20,30.21,30.14,30.08,10,10,10,10,5,,0.00,0,,206
2013-2-14,63,48,33,31,27,21,77,49,20,30.13,30.08,30.01,10,10,10,10,6,,0.00,0,,174
2013-2-15,69,55,41,32,25,14,66,38,13,30.21,30.14,30.09,10,10,10,9,4,,0.00,0,,83
2013-2-16,74,59,44,22,14,6,42,20,7,30.21,30.09,29.95,10,10,10,14,8,,0.00,0,,105
2013-2-17,72,58,45,20,12,1,32,18,6,29.93,29.88,29.79,10,10,10,17,11,21,0.00,0,,198
2013-2-18,68,54,40,23,18,11,42,26,11,30.02,29.94,29.88,10,10,10,10,6,,0.00,0,,108
2013-2-19,68,56,45,26,16,8,35,22,10,29.89,29.78,29.67,10,10,10,22,10,30,0.00,0,,180
2013-2-20,50,41,32,39,33,31,100,91,47,29.96,29.82,29.67,10,7,0,26,9,37,0.54,7,Fog-Rain-Snow,224
2013-2-21,50,41,32,35,32,29,100,81,45,30.05,29.98,29.92,10,10,9,9,5,,0.00,5,Rain,119
2013-2-22,52,44,35,39,34,27,100,74,44,30.13,30.07,29.96,10,10,10,12,3,20,0.00,3,,319
2013-2-23,62,48,33,37,29,19,84,54,18,30.13,29.96,29.83,10,10,10,12,6,,0.00,0,,163
2013-2-24,49,42,34,32,19,4,76,43,17,30.08,29.91,29.77,10,10,10,23,9,33,0.03,1,,280
2013-2-25,55,42,30,26,18,14,62,41,20,30.20,30.10,30.02,10,10,10,8,5,,0.00,0,,237
2013-2-26,61,46,31,24,18,13,66,38,16,30.05,29.98,29.94,10,10,10,13,6,20,0.00,0,,165
2013-2-27,61,48,36,22,13,4,52,28,10,30.19,30.12,30.06,10,10,10,15,6,17,0.00,0,,333
2013-2-28,64,48,31,18,13,8,53,28,11,30.29,30.22,30.17,10,10,10,13,6,,0.00,0,,104